Aeroporto :
LOGIN :

Iscrizione | Disclaimer

   EN    FR    IT 

 










Sommario :    VFR   VFR Marginale   IFR   IFR Intensivo   IFR Molto Intensivo
Visibilità : 
Base nubi : 
>= 8 km
>= 3000ft
5 / 8 km
1000 / 3000 ft
1500m / 5 km
500 / 1000 ft
800 / 1500m
200 / 500 ft
< 800m
< 200 ft
Simboli :   Temporali  Nebbia  Neve Forte  Precipitazioni Forti  Vento > 20 kt
SIGMETs :   Varie  Temporali  Ghiacco  Turbolenza  Onda orograficha  Ceneri Vulcaniche






- Altitudine del aeroporto : 81 ft
- Codice IATA : SCS


EGPM - Scatsta

ULTIMO METAR :
  • 131650Z 11004KT 060V140 9999 VCSH FEW017CB 01/M01 Q0998 TEMPO 4000 SHRASN

METARs OBSOLETI :
  • 131620Z VRB02KT 9999 VCSH FEW017CB 00/M01 Q0998 TEMPO 4000 SHRASN
  • 131550Z 04007KT 9999 VCSH FEW019CB 03/M01 Q0998 TEMPO 4000 SHRASN
  • 131520Z VRB03KT 9999 VCSH FEW019CB 01/M01 Q0998 TEMPO 4000 SHRASN
  • 131450Z 00000KT 9999 VCSH FEW019CB 03/M00 Q0997 TEMPO 4000 SHRASN
  • 131420Z 06004KT 030V120 9999 VCSH FEW019CB 03/M00 Q0997

TAF TAF EGPM
Valido dal 13 a 15 ore il 13 a 20 ore UTC


131356Z 1315/1320 35007KT 9999 FEW035
PROB30
TEMPO 1315/1320 4000 SHRASN



MetMap, La meteo Aeronautica in un colpo d'occhio ! - Copyright ORBIFLY Dicembre 2007 - Disclaimer

ORBIFLY MET'MAP TEAM :

Programmazione e sviluppo : Alexandra Zaïnal
Concezione e sviluppo : Baudouin d'Aumeries
Co-Programmazione e sviluppo : Marc-Olivier Méhu
Supporto tecnico e logistico : Manuel Goepfert
Aiuto per la traduzione : Arnaldo La Scala

Contatto : metmap@orbifly.com




FONTI E CREDITI :

   NOAA